Air Navigation Services of Czech Republic
Airport: LKNA Updated:  15.09.2019 22:01:26  UTC
 METAR LKNA 15.09. 22:00 RRA
METAR LKNA 152200Z VRB02KT CAVOK 15/11 Q1021 RMK BLU=
 TAF LKNA 15.09. 17:00 ...
TAF LKNA 151700Z 1518/1618 19006KT CAVOK      BECMG 1523/1601 31006KT=